Time;durP1;ratioP1;P1;durP2;ratioP2;P2;SDS_P1;SDS_P2;PMS_P1;PMS_P2;Temp;Humidity;BMP_temperature;BMP_pressure;BME280_temperature;BME280_humidity;BME280_pressure;Samples;Min_cycle;Max_cycle;Signal;HPM_P1;HPM_P2
2022/09/12 00:00:51;;;;;;;17.10;13.40;;;;;;;13.46;100.00;98593.52;109291;1276;139331;-63
2022/09/12 00:03:18;;;;;;;14.20;12.70;;;;;;;13.47;100.00;98588.58;109192;1277;22443;-63
2022/09/12 00:05:46;;;;;;;16.00;11.90;;;;;;;13.49;100.00;98587.79;109322;1276;140317;-64
2022/09/12 00:08:13;;;;;;;14.40;12.40;;;;;;;13.49;100.00;98584.55;109132;1276;22558;-64
2022/09/12 00:10:40;;;;;;;14.00;12.40;;;;;;;13.50;100.00;98576.88;109200;1276;22484;-64
2022/09/12 00:13:07;;;;;;;16.20;13.90;;;;;;;13.51;100.00;98572.21;109240;1274;138574;-64
2022/09/12 00:15:41;;;;;;;13.70;12.30;;;;;;;13.52;100.00;98573.90;109409;1274;22476;-64
2022/09/12 00:18:08;;;;;;;13.90;12.50;;;;;;;13.52;100.00;98571.16;109040;1276;140000;-64
2022/09/12 00:20:35;;;;;;;14.80;12.70;;;;;;;13.52;100.00;98571.11;109257;1277;22458;-64
2022/09/12 00:23:02;;;;;;;14.40;12.50;;;;;;;13.53;100.00;98569.45;109180;1277;22475;-64
2022/09/12 00:25:30;;;;;;;14.20;12.80;;;;;;;13.54;100.00;98569.44;109183;1277;139745;-64
2022/09/12 00:27:56;;;;;;;13.30;12.00;;;;;;;13.55;100.00;98570.13;109394;1275;22474;-64
2022/09/12 00:30:24;;;;;;;14.30;12.70;;;;;;;13.56;100.00;98567.98;109201;1277;140363;-63
2022/09/12 00:32:53;;;;;;;17.10;12.80;;;;;;;13.57;100.00;98568.04;109283;1275;22657;-64
2022/09/12 00:35:20;;;;;;;14.30;12.80;;;;;;;13.58;100.00;98564.09;109271;1276;22425;-64
2022/09/12 00:37:47;;;;;;;14.60;13.10;;;;;;;13.59;100.00;98562.60;109243;1277;140608;-63
2022/09/12 00:40:13;;;;;;;15.00;13.40;;;;;;;13.60;100.00;98558.90;109281;1276;22457;-61
2022/09/12 00:42:40;;;;;;;13.40;12.00;;;;;;;13.61;100.00;98564.09;109268;1276;138470;-62
2022/09/12 00:45:10;;;;;;;14.40;12.90;;;;;;;13.62;100.00;98558.11;109279;1275;22460;-62
2022/09/12 00:47:37;;;;;;;13.80;12.30;;;;;;;13.63;100.00;98559.45;109153;1276;22456;-62
2022/09/12 00:50:09;;;;;;;14.50;11.90;;;;;;;13.64;100.00;98557.52;109194;1276;139484;-63
2022/09/12 00:52:42;;;;;;;15.60;12.10;;;;;;;13.65;100.00;98558.28;109238;1276;22473;-62
2022/09/12 00:55:33;;;;;;;13.30;11.90;;;;;;;13.65;100.00;98557.73;109281;1274;138564;-63
2022/09/12 00:58:02;;;;;;;14.20;11.50;;;;;;;13.65;100.00;98555.54;109111;1274;22477;-62
2022/09/12 01:00:29;;;;;;;14.50;12.30;;;;;;;13.65;100.00;98555.25;109068;1275;139531;-62
2022/09/12 01:03:00;;;;;;;13.10;11.30;;;;;;;13.65;100.00;98556.58;109303;1276;22465;-62
2022/09/12 01:05:27;;;;;;;12.00;10.70;;;;;;;13.65;100.00;98555.20;109193;1275;22444;-63
2022/09/12 01:07:55;;;;;;;12.40;11.20;;;;;;;13.66;100.00;98553.94;109195;1277;139611;-63
2022/09/12 01:10:22;;;;;;;13.00;11.70;;;;;;;13.66;100.00;98557.00;109135;1277;22636;-62
2022/09/12 01:12:48;;;;;;;13.70;11.80;;;;;;;13.66;100.00;98559.13;109091;1277;139199;-62
2022/09/12 01:15:15;;;;;;;12.60;11.30;;;;;;;13.66;100.00;98554.48;109229;1274;22455;-62
2022/09/12 01:18:20;;;;;;;12.90;11.60;;;;;;;13.66;100.00;98552.41;109291;1274;23600;-62
2022/09/12 01:21:00;;;;;;;11.90;10.80;;;;;;;13.66;100.00;98551.25;109267;1274;23339;-62
2022/09/12 01:23:57;;;;;;;12.00;10.60;;;;;;;13.65;100.00;98550.33;109285;1274;22575;-63
2022/09/12 01:26:42;;;;;;;14.30;10.90;;;;;;;13.64;100.00;98553.86;109113;1274;23593;-64
2022/09/12 01:29:31;;;;;;;11.90;10.60;;;;;;;13.62;99.97;98556.39;109311;1274;22480;-62
2022/09/12 01:32:35;;;;;;;11.40;10.30;;;;;;;13.61;99.91;98558.17;109188;1274;139510;-63
2022/09/12 01:35:15;;;;;;;11.30;9.90;;;;;;;13.59;99.85;98562.48;109283;1274;23192;-62
2022/09/12 01:37:53;;;;;;;12.00;10.00;;;;;;;13.59;99.72;98561.44;109184;1276;139496;-62
2022/09/12 01:40:29;;;;;;;10.80;9.20;;;;;;;13.57;99.60;98556.61;107010;1274;22557;-62
2022/09/12 01:43:10;;;;;;;12.00;9.90;;;;;;;13.54;99.29;98558.27;104905;1274;139175;-61
2022/09/12 01:45:44;;;;;;;11.60;10.10;;;;;;;13.51;99.08;98555.73;105026;1277;22579;-61
2022/09/12 01:48:19;;;;;;;7.50;6.70;;;;;;;13.49;98.97;98553.86;109169;1277;139794;-62
2022/09/12 01:50:51;;;;;;;7.90;6.70;;;;;;;13.43;98.56;98556.62;109302;1274;22491;-62
2022/09/12 01:53:26;;;;;;;6.30;5.70;;;;;;;13.38;98.18;98552.73;109321;1274;22569;-63
2022/09/12 01:56:02;;;;;;;6.70;4.90;;;;;;;13.35;97.94;98553.23;109076;1274;138206;-62
2022/09/12 01:58:35;;;;;;;5.90;5.40;;;;;;;13.33;97.73;98546.96;109110;1277;22576;-62
2022/09/12 02:01:06;;;;;;;5.90;4.80;;;;;;;13.31;97.63;98543.88;108978;1276;139127;-62
2022/09/12 02:03:38;;;;;;;5.00;4.30;;;;;;;13.29;97.38;98540.61;109180;1276;22909;-62
2022/09/12 02:06:30;;;;;;;11.40;4.20;;;;;;;13.28;97.28;98545.90;109188;1277;162007;-63
2022/09/12 02:09:00;;;;;;;5.10;4.30;;;;;;;13.27;97.09;98543.90;109261;1276;22588;-63
2022/09/12 02:11:27;;;;;;;7.10;4.80;;;;;;;13.26;97.06;98542.61;109177;1276;23140;-62
2022/09/12 02:14:02;;;;;;;7.80;4.80;;;;;;;13.26;96.74;98539.77;109154;1277;138772;-63
2022/09/12 02:16:33;;;;;;;5.50;4.30;;;;;;;13.25;96.71;98540.16;109190;1277;22369;-63
2022/09/12 02:19:04;;;;;;;8.50;5.90;;;;;;;13.24;96.76;98539.35;109041;1276;139052;-63
2022/09/12 02:21:31;;;;;;;7.90;4.80;;;;;;;13.23;96.54;98541.33;109251;1277;22474;-63
2022/09/12 02:24:00;;;;;;;5.20;4.70;;;;;;;13.23;96.44;98539.20;109013;1276;139437;-63
2022/09/12 02:26:51;;;;;;;5.60;5.10;;;;;;;13.22;96.54;98542.21;109169;1276;22507;-63
2022/09/12 02:29:18;;;;;;;6.20;4.90;;;;;;;13.21;96.53;98541.75;109111;1275;22473;-63
2022/09/12 02:31:58;;;;;;;5.90;4.70;;;;;;;13.21;96.51;98543.94;109201;1277;139239;-63
2022/09/12 02:34:38;;;;;;;6.80;4.20;;;;;;;13.21;96.31;98545.24;109350;1277;22504;-63
2022/09/12 02:37:16;;;;;;;4.00;3.60;;;;;;;13.19;96.10;98547.69;109211;1276;138939;-62
2022/09/12 02:39:42;;;;;;;4.30;3.90;;;;;;;13.15;96.06;98543.52;109285;1277;22576;-62
2022/09/12 02:42:11;;;;;;;5.20;3.90;;;;;;;13.12;95.89;98542.96;109188;1277;140978;-62
2022/09/12 02:44:38;;;;;;;3.90;3.60;;;;;;;13.09;95.82;98545.52;109104;1277;23154;-62
2022/09/12 02:47:09;;;;;;;5.60;3.50;;;;;;;13.06;95.84;98546.50;109149;1277;22597;-62
2022/09/12 02:49:36;;;;;;;4.40;3.20;;;;;;;13.03;95.67;98545.45;109245;1276;138174;-62
2022/09/12 02:52:03;;;;;;;3.50;3.20;;;;;;;13.01;95.62;98546.52;109237;1277;22531;-62
2022/09/12 02:54:29;;;;;;;3.80;3.40;;;;;;;12.99;95.65;98547.58;109165;1277;138610;-62
2022/09/12 02:56:56;;;;;;;4.90;3.20;;;;;;;12.97;95.54;98549.56;109163;1276;22261;-62
2022/09/12 02:59:23;;;;;;;5.50;2.80;;;;;;;12.95;95.52;98547.49;109295;1276;22663;-62
2022/09/12 03:02:26;;;;;;;4.40;2.80;;;;;;;12.94;95.74;98547.30;109204;1277;138147;-62
2022/09/12 03:05:15;;;;;;;6.30;3.30;;;;;;;12.92;95.64;98550.98;108491;1282;22723;-62
2022/09/12 03:07:51;;;;;;;4.40;3.30;;;;;;;12.90;95.63;98550.52;108353;1282;138529;-62
2022/09/12 03:10:29;;;;;;;3.50;3.20;;;;;;;12.88;95.65;98550.83;108583;1282;23261;-62
2022/09/12 03:13:25;;;;;;;3.80;3.40;;;;;;;12.85;95.67;98548.90;108347;1282;139239;-62
2022/09/12 03:15:58;;;;;;;6.10;3.20;;;;;;;12.85;95.63;98548.46;108066;1288;22553;-62
2022/09/12 03:18:31;;;;;;;2.90;2.70;;;;;;;12.83;95.67;98546.88;107961;1288;139088;-62
2022/09/12 03:21:06;;;;;;;4.50;3.10;;;;;;;12.82;95.56;98544.75;107862;1288;22497;-62
2022/09/12 03:23:53;;;;;;;3.20;2.50;;;;;;;12.83;95.54;98545.11;107837;1288;23184;-62
2022/09/12 03:26:24;;;;;;;3.40;3.10;;;;;;;12.84;95.55;98544.98;108065;1287;22963;-62
2022/09/12 03:28:52;;;;;;;2.70;2.50;;;;;;;12.83;95.53;98541.73;107582;1288;22590;-62
2022/09/12 03:31:18;;;;;;;4.60;2.60;;;;;;;12.82;95.54;98543.23;107956;1288;139241;-62
2022/09/12 03:33:45;;;;;;;7.40;2.70;;;;;;;12.81;95.53;98543.34;107874;1288;22955;-62
2022/09/12 03:36:24;;;;;;;4.90;2.80;;;;;;;12.81;95.49;98546.40;107976;1288;139517;-62
2022/09/12 03:38:50;;;;;;;4.80;3.00;;;;;;;12.80;95.31;98545.77;107876;1288;22506;-62
2022/09/12 03:41:17;;;;;;;5.20;3.00;;;;;;;12.80;95.41;98547.35;108090;1281;22566;-62
2022/09/12 03:43:44;;;;;;;6.80;3.90;;;;;;;12.80;95.29;98548.02;108540;1281;139433;-61
2022/09/12 03:46:12;;;;;;;3.50;2.90;;;;;;;12.80;95.38;98553.86;108581;1282;23635;-61
2022/09/12 03:48:39;;;;;;;3.90;2.50;;;;;;;12.78;95.17;98554.15;108506;1282;139094;-62
2022/09/12 03:51:08;;;;;;;2.50;1.60;;;;;;;12.75;95.24;98565.17;108601;1282;23141;-62
2022/09/12 03:53:35;;;;;;;2.40;1.70;;;;;;;12.69;94.91;98565.23;109012;1277;22322;-62
2022/09/12 03:56:09;;;;;;;1.60;1.50;;;;;;;12.62;94.48;98564.93;109144;1277;139451;-63
2022/09/12 03:58:35;;;;;;;2.10;1.30;;;;;;;12.55;94.41;98570.92;109212;1276;22281;-62
2022/09/12 04:01:10;;;;;;;3.00;1.90;;;;;;;12.50;94.21;98574.60;109224;1276;139300;-62
2022/09/12 04:03:41;;;;;;;2.70;1.50;;;;;;;12.47;94.15;98574.10;109363;1276;22508;-62
2022/09/12 04:06:09;;;;;;;1.60;1.30;;;;;;;12.44;94.04;98580.85;109200;1276;139173;-62
2022/09/12 04:08:36;;;;;;;5.70;1.50;;;;;;;12.39;93.83;98583.94;109244;1276;23224;-63
2022/09/12 04:11:13;;;;;;;1.60;0.90;;;;;;;12.33;93.57;98583.66;109332;1276;22467;-63
2022/09/12 04:13:41;;;;;;;1.10;0.90;;;;;;;12.25;93.25;98590.27;109128;1277;138395;-63
2022/09/12 04:16:08;;;;;;;1.60;1.00;;;;;;;12.17;92.96;98589.15;109314;1276;22453;-63
2022/09/12 04:18:35;;;;;;;0.90;0.80;;;;;;;12.12;92.56;98588.46;109257;1277;138251;-63
2022/09/12 04:21:15;;;;;;;2.80;1.30;;;;;;;12.06;92.55;98588.15;109360;1276;23380;-63
2022/09/12 04:23:42;;;;;;;1.80;1.10;;;;;;;12.00;92.21;98588.97;109268;1277;22476;-63
2022/09/12 04:26:09;;;;;;;1.30;0.80;;;;;;;11.97;92.02;98594.54;109384;1276;22479;-63
2022/09/12 04:28:37;;;;;;;1.00;0.60;;;;;;;11.92;91.76;98598.79;109290;1276;22463;-63
2022/09/12 04:31:16;;;;;;;0.50;0.50;;;;;;;11.85;90.92;98594.27;109262;1277;139311;-63
2022/09/12 04:33:43;;;;;;;1.40;0.60;;;;;;;11.77;90.65;98595.05;109244;1276;22587;-63
2022/09/12 04:36:13;;;;;;;0.90;0.80;;;;;;;11.72;90.54;98595.71;109221;1276;138524;-63
2022/09/12 04:38:40;;;;;;;2.10;1.70;;;;;;;11.69;90.32;98595.54;109280;1277;22722;-63
2022/09/12 04:41:20;;;;;;;2.30;1.90;;;;;;;11.67;90.39;98600.98;109294;1276;22293;-63
2022/09/12 04:43:51;;;;;;;1.40;1.10;;;;;;;11.67;90.27;98604.91;109164;1277;139949;-62
2022/09/12 04:46:19;;;;;;;2.30;0.80;;;;;;;11.65;90.13;98607.81;109300;1276;23362;-63
2022/09/12 04:48:46;;;;;;;1.10;0.70;;;;;;;11.64;90.09;98605.75;109244;1275;138906;-62
2022/09/12 04:51:21;;;;;;;1.40;0.80;;;;;;;11.63;89.62;98609.85;109337;1277;23316;-62
2022/09/12 04:53:49;;;;;;;2.90;0.90;;;;;;;11.60;89.15;98611.94;109214;1277;139384;-62
2022/09/12 04:56:16;;;;;;;2.10;0.90;;;;;;;11.57;89.00;98611.58;109300;1277;22589;-63
2022/09/12 04:58:43;;;;;;;2.50;1.00;;;;;;;11.55;88.85;98617.32;109304;1276;22402;-64
2022/09/12 05:01:11;;;;;;;1.20;0.70;;;;;;;11.55;88.79;98616.78;109146;1277;138770;-63
2022/09/12 05:03:38;;;;;;;1.30;1.00;;;;;;;11.55;88.75;98615.36;109337;1277;22451;-63
2022/09/12 05:06:06;;;;;;;2.60;1.10;;;;;;;11.56;88.86;98613.88;109233;1276;140149;-64
2022/09/12 05:08:34;;;;;;;2.00;1.10;;;;;;;11.57;89.01;98615.77;109378;1276;22493;-64
2022/09/12 05:11:03;;;;;;;6.00;1.60;;;;;;;11.58;89.02;98614.68;109345;1276;22470;-64
2022/09/12 05:13:30;;;;;;;4.70;1.50;;;;;;;11.59;89.12;98611.02;109245;1277;139230;-63
2022/09/12 05:15:58;;;;;;;4.60;1.90;;;;;;;11.61;89.15;98609.59;109349;1276;22459;-64
2022/09/12 05:18:25;;;;;;;3.10;2.10;;;;;;;11.62;89.01;98610.84;109168;1276;138917;-63
2022/09/12 05:20:52;;;;;;;5.00;1.60;;;;;;;11.63;89.12;98609.90;109281;1275;22590;-63
2022/09/12 05:23:20;;;;;;;3.60;1.70;;;;;;;11.65;89.36;98609.13;109285;1276;23269;-63
2022/09/12 05:25:51;;;;;;;2.50;1.80;;;;;;;11.66;89.27;98608.46;109176;1277;138554;-63
2022/09/12 05:28:18;;;;;;;4.50;1.60;;;;;;;11.69;89.24;98612.67;109187;1277;22461;-63
2022/09/12 05:30:45;;;;;;;2.50;1.50;;;;;;;11.72;89.45;98611.99;109218;1276;139160;-63
2022/09/12 05:33:13;;;;;;;3.10;0.90;;;;;;;11.73;89.31;98611.27;109302;1277;22261;-63
2022/09/12 05:35:39;;;;;;;0.90;0.70;;;;;;;11.74;89.29;98609.63;109304;1275;22568;-64
2022/09/12 05:38:06;;;;;;;2.70;0.90;;;;;;;11.75;89.14;98605.97;109203;1277;139506;-63
2022/09/12 05:40:33;;;;;;;1.40;0.80;;;;;;;11.76;88.98;98608.33;109380;1276;22577;-63
2022/09/12 05:43:00;;;;;;;0.80;0.80;;;;;;;11.76;88.48;98606.69;109200;1277;139854;-63
2022/09/12 05:45:27;;;;;;;0.80;0.80;;;;;;;11.77;88.50;98607.73;109297;1276;22396;-63
2022/09/12 05:47:54;;;;;;;0.70;0.70;;;;;;;11.79;88.53;98604.59;109069;1276;138732;-63
2022/09/12 05:50:20;;;;;;;0.90;0.70;;;;;;;11.80;88.90;98603.34;109283;1277;22520;-63
2022/09/12 05:52:47;;;;;;;1.10;0.80;;;;;;;11.82;88.81;98604.85;109309;1276;22406;-63
2022/09/12 05:55:15;;;;;;;1.30;1.00;;;;;;;11.84;88.69;98605.52;109152;1276;138689;-63
2022/09/12 05:57:45;;;;;;;1.40;1.10;;;;;;;11.85;88.72;98604.63;109330;1276;22529;-63
2022/09/12 06:00:13;;;;;;;4.20;1.00;;;;;;;11.85;88.89;98607.24;109135;1276;139229;-63
2022/09/12 06:02:41;;;;;;;0.70;0.60;;;;;;;11.86;88.78;98605.65;109234;1276;22555;-63
2022/09/12 06:05:08;;;;;;;2.90;0.70;;;;;;;11.87;89.01;98605.43;109242;1277;22476;-63
2022/09/12 06:07:35;;;;;;;1.70;0.80;;;;;;;11.89;88.55;98609.67;109144;1277;139729;-63
2022/09/12 06:10:03;;;;;;;4.20;0.90;;;;;;;11.89;88.28;98609.19;109348;1276;22424;-63
2022/09/12 06:12:31;;;;;;;1.40;0.80;;;;;;;11.87;88.17;98609.52;109153;1277;139146;-63
2022/09/12 06:14:58;;;;;;;3.60;0.80;;;;;;;11.86;87.99;98608.44;109369;1276;23318;-63
2022/09/12 06:17:25;;;;;;;2.00;1.00;;;;;;;11.83;87.88;98606.30;109254;1277;22592;-63
2022/09/12 06:19:52;;;;;;;1.00;0.70;;;;;;;11.80;87.75;98604.59;109122;1277;138103;-63
2022/09/12 06:22:19;;;;;;;1.90;0.90;;;;;;;11.79;87.89;98608.52;109217;1277;22608;-63
2022/09/12 06:24:46;;;;;;;2.00;1.00;;;;;;;11.78;87.95;98611.31;109130;1277;139851;-63
2022/09/12 06:27:13;;;;;;;0.70;0.50;;;;;;;11.77;87.86;98611.60;109253;1277;22513;-63
2022/09/12 06:29:40;;;;;;;1.00;0.70;;;;;;;11.74;87.64;98611.92;109301;1277;22454;-63
2022/09/12 06:32:06;;;;;;;1.20;0.80;;;;;;;11.72;87.51;98615.10;109237;1277;138217;-63
2022/09/12 06:34:35;;;;;;;;;;;;;;;11.69;87.74;98609.66;109273;1276;22545;-63
2022/09/12 06:37:02;;;;;;;4.40;1.40;;;;;;;11.68;87.73;98610.79;109139;1277;128236;-63
2022/09/12 06:39:30;;;;;;;1.60;1.10;;;;;;;11.68;87.97;98611.77;109276;1275;22248;-63
2022/09/12 06:41:57;;;;;;;2.40;1.30;;;;;;;11.67;87.95;98614.07;109155;1277;138559;-63
2022/09/12 06:44:32;;;;;;;2.50;1.30;;;;;;;11.68;88.04;98618.27;109253;1277;22632;-63
2022/09/12 06:46:58;;;;;;;2.80;1.50;;;;;;;11.70;88.23;98617.03;109249;1276;22459;-63
2022/09/12 06:49:25;;;;;;;;;;;;;;;11.74;88.85;98617.93;109189;1276;138116;-63
2022/09/12 06:51:52;;;;;;;2.60;1.40;;;;;;;11.79;89.23;98622.18;109382;1277;22517;-63
2022/09/12 06:54:19;;;;;;;;;;;;;;;11.84;89.15;98620.70;109240;1276;139305;-62
2022/09/12 06:56:45;;;;;;;3.00;1.10;;;;;;;11.88;89.23;98624.09;109304;1277;22486;-63
2022/09/12 06:59:12;;;;;;;1.10;0.90;;;;;;;11.91;89.01;98624.07;109259;1276;22565;-62
2022/09/12 07:01:40;;;;;;;1.40;1.00;;;;;;;11.97;88.85;98623.17;109180;1276;139129;-63
2022/09/12 07:04:07;;;;;;;2.10;1.20;;;;;;;12.03;88.52;98624.05;109320;1275;22458;-63
2022/09/12 07:06:39;;;;;;;1.20;1.00;;;;;;;12.10;88.25;98626.98;109180;1276;137951;-62
2022/09/12 07:09:07;;;;;;;2.40;1.80;;;;;;;12.18;87.86;98623.51;109274;1277;22649;-63
2022/09/12 07:11:35;;;;;;;2.60;1.00;;;;;;;12.25;87.83;98627.64;109321;1275;23343;-63
2022/09/12 07:16:46;;;;;;;1.40;1.20;;;;;;;12.44;86.92;98627.73;101955;1309;545242;-62
2022/09/12 07:19:12;;;;;;;2.30;1.00;;;;;;;12.50;85.99;98627.23;104024;1286;138718;-62
2022/09/12 07:21:40;;;;;;;2.30;0.90;;;;;;;12.55;85.49;98625.52;104068;1287;27565;-62
2022/09/12 07:24:08;;;;;;;1.50;1.00;;;;;;;12.61;85.23;98622.98;104473;1287;138061;-63
2022/09/12 07:26:35;;;;;;;2.90;1.20;;;;;;;12.67;85.00;98620.67;108098;1286;22450;-63
2022/09/12 07:29:02;;;;;;;3.80;1.40;;;;;;;12.73;84.92;98617.80;108215;1287;22484;-61
2022/09/12 07:31:49;;;;;;;2.60;1.10;;;;;;;12.81;84.80;98616.05;107051;1286;138501;-62
2022/09/12 07:34:16;;;;;;;2.50;1.10;;;;;;;12.88;84.70;98619.22;108394;1286;22693;-62
2022/09/12 07:36:43;;;;;;;1.60;0.80;;;;;;;12.97;84.27;98620.80;108276;1284;138196;-62
2022/09/12 07:39:09;;;;;;;2.00;0.90;;;;;;;13.05;83.85;98625.60;108306;1284;22456;-62
2022/09/12 07:41:36;;;;;;;1.40;1.10;;;;;;;13.10;83.13;98616.56;108371;1284;22546;-62
2022/09/12 07:44:05;;;;;;;1.50;0.90;;;;;;;13.16;82.29;98622.45;108206;1284;138879;-61
2022/09/12 07:46:32;;;;;;;1.90;1.00;;;;;;;13.20;81.68;98618.04;108503;1284;22489;-62
2022/09/12 07:48:59;;;;;;;0.70;0.70;;;;;;;13.24;81.69;98619.39;108386;1283;139421;-61
2022/09/12 07:51:27;;;;;;;1.30;0.70;;;;;;;13.30;81.17;98619.73;108359;1285;22471;-62
2022/09/12 07:53:55;;;;;;;3.00;0.90;;;;;;;13.33;80.73;98621.75;108320;1284;138900;-62
2022/09/12 07:56:22;;;;;;;4.50;1.00;;;;;;;13.38;80.58;98621.73;108291;1285;22464;-62
2022/09/12 07:58:55;;;;;;;2.30;0.90;;;;;;;13.43;80.00;98624.05;108345;1286;22465;-62
2022/09/12 08:01:22;;;;;;;2.80;1.20;;;;;;;13.45;79.48;98622.10;108252;1285;139338;-62
2022/09/12 08:03:54;;;;;;;2.30;1.00;;;;;;;13.50;79.43;98622.46;108523;1284;22435;-63
2022/09/12 08:06:23;;;;;;;1.10;1.10;;;;;;;13.58;79.26;98621.56;108355;1284;137938;-62
2022/09/12 08:08:50;;;;;;;1.40;1.30;;;;;;;13.64;79.24;98621.41;108334;1286;22607;-63
2022/09/12 08:11:18;;;;;;;2.60;1.50;;;;;;;13.69;78.95;98623.08;108361;1286;22498;-63
2022/09/12 08:13:45;;;;;;;1.60;1.10;;;;;;;13.73;78.55;98622.17;108254;1284;139587;-62
2022/09/12 08:16:20;;;;;;;1.90;1.60;;;;;;;13.76;78.23;98625.25;108397;1286;22483;-63
2022/09/12 08:18:47;;;;;;;1.50;1.40;;;;;;;13.77;77.75;98622.55;108368;1284;138836;-62
2022/09/12 08:21:19;;;;;;;1.90;1.60;;;;;;;13.76;77.41;98618.30;108292;1285;22467;-63
2022/09/12 08:23:46;;;;;;;1.90;1.40;;;;;;;13.76;77.03;98617.58;108192;1286;138461;-62
2022/09/12 08:26:12;;;;;;;4.00;1.90;;;;;;;13.77;77.13;98612.36;108301;1285;23160;-62
2022/09/12 08:28:44;;;;;;;2.20;1.60;;;;;;;13.80;77.20;98615.33;108188;1287;22410;-62
2022/09/12 08:31:15;;;;;;;2.10;1.50;;;;;;;13.83;76.86;98613.09;108134;1286;138769;-63
2022/09/12 08:33:42;;;;;;;2.00;1.40;;;;;;;13.88;76.93;98614.08;108158;1287;22546;-62
2022/09/12 08:36:13;;;;;;;1.90;1.70;;;;;;;13.92;76.49;98608.15;108062;1286;139221;-62
2022/09/12 08:38:41;;;;;;;1.60;1.50;;;;;;;13.96;76.39;98612.64;108355;1286;22479;-62
2022/09/12 08:41:16;;;;;;;2.10;1.50;;;;;;;13.98;75.95;98612.66;108386;1286;22449;-62
2022/09/12 08:44:24;;;;;;;1.90;1.60;;;;;;;13.98;75.77;98612.77;109056;1276;139446;-62
2022/09/12 08:46:56;;;;;;;1.30;1.20;;;;;;;14.00;75.65;98610.46;109215;1276;22435;-64
2022/09/12 08:49:27;;;;;;;1.70;1.60;;;;;;;14.00;75.17;98611.27;109163;1274;137709;-61
2022/09/12 08:51:54;;;;;;;2.10;1.90;;;;;;;14.01;75.23;98610.98;109381;1274;22488;-62
2022/09/12 08:54:26;;;;;;;3.20;2.00;;;;;;;14.02;74.88;98605.02;109014;1274;138888;-61
2022/09/12 08:57:00;;;;;;;2.20;2.00;;;;;;;14.04;75.31;98606.06;109180;1277;22448;-61
2022/09/12 08:59:34;;;;;;;3.80;1.70;;;;;;;14.08;75.43;98605.61;109373;1274;22504;-62
2022/09/12 09:02:03;;;;;;;2.00;1.80;;;;;;;14.11;74.41;98603.80;109130;1275;138887;-62
2022/09/12 09:04:50;;;;;;;3.40;1.70;;;;;;;14.12;73.47;98605.92;109203;1275;22518;-61
2022/09/12 09:07:51;;;;;;;2.60;2.00;;;;;;;14.08;72.99;98604.23;109069;1276;137896;-62
2022/09/12 09:10:30;;;;;;;1.90;1.40;;;;;;;14.03;73.20;98603.83;109379;1273;22682;-62
2022/09/12 09:12:57;;;;;;;2.20;1.60;;;;;;;14.02;73.75;98606.04;109207;1274;139241;-61
2022/09/12 09:15:36;;;;;;;1.80;1.50;;;;;;;14.04;73.50;98609.13;109139;1277;22461;-61
2022/09/12 09:18:22;;;;;;;1.70;1.50;;;;;;;14.06;73.69;98611.77;109064;1274;139929;-61
2022/09/12 09:20:52;;;;;;;2.20;1.70;;;;;;;14.10;73.23;98614.77;109083;1274;22559;-66
2022/09/12 09:23:27;;;;;;;1.40;1.30;;;;;;;14.15;73.45;98610.95;109331;1275;22653;-62
2022/09/12 09:26:09;;;;;;;1.80;1.40;;;;;;;14.20;73.19;98612.66;109074;1274;138690;-62
2022/09/12 09:28:45;;;;;;;2.40;1.40;;;;;;;14.24;72.82;98613.74;109303;1274;22439;-62
2022/09/12 09:31:21;;;;;;;2.90;1.70;;;;;;;14.26;72.66;98615.07;109124;1276;138683;-62
2022/09/12 09:33:50;;;;;;;1.90;1.40;;;;;;;14.27;72.36;98614.02;109228;1275;22532;-61
2022/09/12 09:36:21;;;;;;;1.60;1.50;;;;;;;14.28;72.53;98619.40;109163;1276;137753;-62
2022/09/12 09:38:50;;;;;;;1.70;1.40;;;;;;;14.31;72.61;98621.03;109196;1276;22580;-62
2022/09/12 09:41:41;;;;;;;2.50;1.60;;;;;;;14.33;72.63;98622.20;109239;1274;22405;-61
2022/09/12 09:44:07;;;;;;;3.30;1.50;;;;;;;14.33;72.52;98623.35;109118;1274;32258;-62
2022/09/12 09:46:34;;;;;;;1.50;1.30;;;;;;;14.32;72.90;98622.27;109206;1276;22527;-62
2022/09/12 09:49:04;;;;;;;2.20;1.50;;;;;;;14.31;72.66;98627.34;109108;1276;23081;-62
2022/09/12 09:51:38;;;;;;;1.30;1.20;;;;;;;14.29;72.40;98623.88;109219;1275;22443;-63
2022/09/12 09:54:18;;;;;;;4.30;1.70;;;;;;;14.27;72.66;98626.23;109200;1274;23709;-62
2022/09/12 09:56:47;;;;;;;1.90;1.60;;;;;;;14.26;72.34;98625.54;109182;1274;23257;-62
2022/09/12 09:59:15;;;;;;;2.60;1.90;;;;;;;14.24;72.34;98626.79;109254;1276;23464;-62
2022/09/12 10:01:45;;;;;;;2.40;1.20;;;;;;;14.21;72.22;98626.34;109124;1277;22480;-62
2022/09/12 10:04:23;;;;;;;3.50;1.40;;;;;;;14.16;71.97;98628.17;109256;1274;22533;-63
2022/09/12 10:06:58;;;;;;;2.80;1.60;;;;;;;14.14;72.12;98627.17;109304;1275;23623;-61
2022/09/12 10:09:26;;;;;;;4.10;1.60;;;;;;;14.13;72.45;98632.47;109123;1274;23037;-61
2022/09/12 10:11:54;;;;;;;1.90;1.50;;;;;;;14.12;72.55;98632.00;109068;1276;22455;-61
2022/09/12 10:14:36;;;;;;;1.30;1.20;;;;;;;14.09;72.72;98633.92;109275;1274;22495;-61
2022/09/12 10:17:21;;;;;;;4.10;1.80;;;;;;;14.02;72.83;98637.05;109320;1275;22456;-61
2022/09/12 10:19:48;;;;;;;6.00;1.70;;;;;;;13.93;73.17;98642.75;109315;1274;22475;-61
2022/09/12 10:22:35;;;;;;;2.20;1.70;;;;;;;13.80;73.55;98642.70;109291;1275;23167;-62
2022/09/12 10:25:02;;;;;;;3.70;1.90;;;;;;;13.72;74.09;98644.33;108895;1276;23220;-61
2022/09/12 10:27:32;;;;;;;3.00;2.00;;;;;;;13.66;74.21;98645.35;109070;1275;22441;-60
2022/09/12 10:30:16;;;;;;;1.80;1.60;;;;;;;13.62;74.50;98644.98;109122;1275;22587;-61
2022/09/12 10:32:49;;;;;;;1.80;1.60;;;;;;;13.60;74.51;98643.15;109244;1276;22558;-61
2022/09/12 10:35:18;;;;;;;1.90;1.70;;;;;;;13.56;74.34;98645.14;109386;1274;22475;-62
2022/09/12 10:37:57;;;;;;;1.90;1.80;;;;;;;13.51;74.55;98644.73;109338;1274;22464;-59
2022/09/12 10:40:31;;;;;;;2.80;1.90;;;;;;;13.47;74.47;98644.95;109076;1276;23218;-60
2022/09/12 10:42:58;;;;;;;8.10;5.30;;;;;;;13.45;74.68;98649.73;109287;1276;22468;-60
2022/09/12 10:45:30;;;;;;;2.70;1.70;;;;;;;13.44;74.91;98651.23;109007;1276;22420;-60
2022/09/12 10:48:01;;;;;;;2.60;1.70;;;;;;;13.43;74.93;98650.54;109233;1275;22466;-60
2022/09/12 10:50:40;;;;;;;2.00;1.70;;;;;;;13.41;75.03;98655.57;109214;1276;23254;-60
2022/09/12 10:53:13;;;;;;;2.80;2.00;;;;;;;13.38;75.00;98656.05;109156;1276;22424;-62
2022/09/12 10:55:41;;;;;;;3.80;2.70;;;;;;;13.36;75.13;98661.94;109199;1276;22446;-62
2022/09/12 10:58:52;;;;;;;4.70;1.80;;;;;;;13.33;75.18;98665.20;108953;1276;22440;-60
2022/09/12 11:01:26;;;;;;;3.30;2.00;;;;;;;13.25;75.44;98667.41;108791;1280;22459;-60
2022/09/12 11:04:12;;;;;;;2.20;1.60;;;;;;;13.20;75.60;98668.46;108683;1280;22535;-61
2022/09/12 11:06:46;;;;;;;5.50;2.30;;;;;;;13.17;75.92;98666.20;108804;1280;22439;-62
2022/09/12 11:09:16;;;;;;;3.00;2.20;;;;;;;13.15;76.25;98663.88;108717;1280;22458;-61
2022/09/12 11:11:49;;;;;;;2.00;1.80;;;;;;;13.12;76.45;98663.08;108768;1280;22536;-62
2022/09/12 11:14:30;;;;;;;5.90;2.10;;;;;;;13.09;76.40;98665.31;108760;1280;23314;-63
2022/09/12 11:16:57;;;;;;;3.60;2.30;;;;;;;13.02;76.47;98663.05;108540;1280;23757;-62
2022/09/12 11:19:37;;;;;;;4.80;1.90;;;;;;;12.96;76.84;98667.02;108785;1277;22630;-63
2022/09/12 11:22:25;;;;;;;7.00;2.70;;;;;;;12.93;77.40;98667.61;108650;1280;23406;-62
2022/09/12 11:25:11;;;;;;;5.20;2.80;;;;;;;12.95;77.79;98671.14;108822;1280;22959;-60
2022/09/12 11:27:40;;;;;;;3.80;1.90;;;;;;;12.97;78.16;98666.69;108826;1280;22450;-61
2022/09/12 11:30:09;;;;;;;2.70;1.90;;;;;;;13.00;78.09;98667.06;108797;1280;22457;-61
2022/09/12 11:32:52;;;;;;;3.60;2.20;;;;;;;13.01;77.82;98665.46;108613;1280;22557;-62
2022/09/12 11:35:26;;;;;;;3.50;2.20;;;;;;;12.97;77.50;98661.86;108768;1280;22530;-62
2022/09/12 11:38:27;;;;;;;3.70;2.40;;;;;;;12.94;77.39;98662.25;108860;1274;23305;-62
2022/09/12 11:40:58;;;;;;;4.10;2.30;;;;;;;12.92;77.41;98663.52;109270;1276;22574;-62
2022/09/12 11:43:43;;;;;;;4.80;2.60;;;;;;;12.93;77.46;98662.30;109015;1276;22449;-62